Time;durP1;ratioP1;P1;durP2;ratioP2;P2;SDS_P1;SDS_P2;PMS_P1;PMS_P2;Temp;Humidity;BMP_temperature;BMP_pressure;BME280_temperature;BME280_humidity;BME280_pressure;Samples;Min_cycle;Max_cycle;Signal;HPM_P1;HPM_P2
2022/03/25 00:01:34;;;;;;;99.07;45.03;;;;;;;;;;5026541;28;20058;-75
2022/03/25 00:04:00;;;;;;;95.50;42.85;;;;;;;;;;5008555;28;20044;-75
2022/03/25 00:06:26;;;;;;;84.43;39.45;;;;;;;;;;5026595;28;20120;-75
2022/03/25 00:08:52;;;;;;;89.03;42.95;;;;;;;;;;5008147;28;20064;-75
2022/03/25 00:11:19;;;;;;;100.60;46.92;;;;;;;;;;5006334;28;20165;-75
2022/03/25 00:13:45;;;;;;;95.88;44.08;;;;;;;;;;5008590;28;20077;-75
2022/03/25 00:16:11;;;;;;;94.05;43.17;;;;;;;;;;5008834;28;20490;-75
2022/03/25 00:18:37;;;;;;;91.85;42.30;;;;;;;;;;4992307;28;20093;-75
2022/03/25 00:21:03;;;;;;;101.10;45.75;;;;;;;;;;5024191;28;20084;-75
2022/03/25 00:23:29;;;;;;;107.10;48.63;;;;;;;;;;5008759;28;20045;-75
2022/03/25 00:25:56;;;;;;;97.55;44.83;;;;;;;;;;5008441;28;20048;-75
2022/03/25 00:28:22;;;;;;;90.47;42.67;;;;;;;;;;5028494;28;20526;-77
2022/03/25 00:30:49;;;;;;;88.28;41.65;;;;;;;;;;5012137;28;20055;-75
2022/03/25 00:33:16;;;;;;;90.82;42.05;;;;;;;;;;4991172;28;20043;-75
2022/03/25 00:35:43;;;;;;;91.30;42.63;;;;;;;;;;5029628;28;20178;-75
2022/03/25 00:38:09;;;;;;;93.75;43.45;;;;;;;;;;5029006;28;20037;-75
2022/03/25 00:40:35;;;;;;;82.40;39.65;;;;;;;;;;5011863;28;20148;-75
2022/03/25 00:43:01;;;;;;;118.50;49.88;;;;;;;;;;5029342;28;20029;-75
2022/03/25 00:45:29;;;;;;;98.70;44.53;;;;;;;;;;5029409;28;20033;-75
2022/03/25 00:47:58;;;;;;;88.68;41.67;;;;;;;;;;5029326;28;20042;-75
2022/03/25 00:50:24;;;;;;;108.68;48.50;;;;;;;;;;5029613;28;20184;-75
2022/03/25 00:52:51;;;;;;;98.43;45.92;;;;;;;;;;5011482;28;20038;-75
2022/03/25 00:55:17;;;;;;;94.85;44.80;;;;;;;;;;5011524;28;20439;-75
2022/03/25 00:57:43;;;;;;;99.22;43.30;;;;;;;;;;5029309;28;20040;-75
2022/03/25 01:00:09;;;;;;;111.03;48.85;;;;;;;;;;5011427;28;20048;-75
2022/03/25 01:02:36;;;;;;;117.45;49.63;;;;;;;;;;5011857;28;20390;-75
2022/03/25 01:05:02;;;;;;;108.80;48.05;;;;;;;;;;5029089;28;20037;-75
2022/03/25 01:07:28;;;;;;;94.95;44.65;;;;;;;;;;5011416;28;20086;-75
2022/03/25 01:09:54;;;;;;;87.80;41.42;;;;;;;;;;4994475;28;20042;-75
2022/03/25 01:12:21;;;;;;;95.03;44.35;;;;;;;;;;5029043;28;20042;-75
2022/03/25 01:14:48;;;;;;;102.30;46.13;;;;;;;;;;5011501;28;20406;-74
2022/03/25 01:17:14;;;;;;;110.10;47.97;;;;;;;;;;5011012;28;20044;-75
2022/03/25 01:19:41;;;;;;;86.00;39.60;;;;;;;;;;5029087;28;20398;-75
2022/03/25 01:22:07;;;;;;;108.22;48.67;;;;;;;;;;5011236;28;20037;-75
2022/03/25 01:24:33;;;;;;;106.93;47.42;;;;;;;;;;5011556;28;20042;-75
2022/03/25 01:27:00;;;;;;;94.38;43.03;;;;;;;;;;5010505;28;20086;-75
2022/03/25 01:29:26;;;;;;;88.53;41.28;;;;;;;;;;4994878;28;20072;-74
2022/03/25 01:31:53;;;;;;;97.68;44.88;;;;;;;;;;5026136;28;20511;-75
2022/03/25 01:34:20;;;;;;;93.70;43.25;;;;;;;;;;5011221;28;20037;-75
2022/03/25 01:36:46;;;;;;;109.80;48.92;;;;;;;;;;5010973;28;20394;-75
2022/03/25 01:39:12;;;;;;;114.00;49.60;;;;;;;;;;5009185;28;20037;-74
2022/03/25 01:41:39;;;;;;;120.22;45.60;;;;;;;;;;5011087;28;20086;-75
2022/03/25 01:44:05;;;;;;;166.07;47.60;;;;;;;;;;5010688;28;20061;-74
2022/03/25 01:46:32;;;;;;;1076.70;58.30;;;;;;;;;;5011009;28;20444;-74
2022/03/25 01:48:58;;;;;;;833.70;54.92;;;;;;;;;;4994374;28;20034;-74
2022/03/25 01:51:28;;;;;;;670.20;54.22;;;;;;;;;;5028553;28;20066;-74
2022/03/25 01:53:54;;;;;;;704.83;53.17;;;;;;;;;;5020565;28;20045;-77
2022/03/25 01:56:22;;;;;;;854.15;49.60;;;;;;;;;;5010749;28;20051;-77
2022/03/25 01:58:48;;;;;;;619.88;47.42;;;;;;;;;;5010847;28;20085;-77
2022/03/25 02:01:15;;;;;;;484.42;42.40;;;;;;;;;;5010306;28;20041;-77
2022/03/25 02:03:41;;;;;;;784.53;50.58;;;;;;;;;;5027850;28;20045;-77
2022/03/25 02:06:08;;;;;;;579.00;45.35;;;;;;;;;;5010560;28;20552;-74
2022/03/25 02:08:35;;;;;;;439.45;39.50;;;;;;;;;;5028264;28;20057;-77
2022/03/25 02:11:01;;;;;;;562.05;40.97;;;;;;;;;;5010144;28;20049;-77
2022/03/25 02:13:27;;;;;;;691.88;46.70;;;;;;;;;;4994468;28;20041;-77
2022/03/25 02:15:53;;;;;;;625.90;44.47;;;;;;;;;;4994135;28;20041;-77
2022/03/25 02:18:19;;;;;;;787.15;48.28;;;;;;;;;;5028187;28;20038;-77
2022/03/25 02:20:46;;;;;;;381.35;37.80;;;;;;;;;;5010187;28;20045;-77
2022/03/25 02:23:13;;;;;;;549.45;42.95;;;;;;;;;;4993997;28;20565;-74
2022/03/25 02:25:40;;;;;;;522.08;46.03;;;;;;;;;;5028180;28;20550;-75
2022/03/25 02:28:06;;;;;;;595.80;47.70;;;;;;;;;;4994204;28;20037;-77
2022/03/25 02:30:33;;;;;;;362.05;41.35;;;;;;;;;;5027937;28;20046;-77
2022/03/25 02:33:04;;;;;;;814.55;53.58;;;;;;;;;;5027563;28;20425;-77
2022/03/25 02:35:39;;;;;;;813.90;55.03;;;;;;;;;;5010684;28;20124;-78
2022/03/25 02:38:06;;;;;;;1238.22;65.95;;;;;;;;;;5010233;28;20041;-78
2022/03/25 02:40:32;;;;;;;992.45;58.63;;;;;;;;;;5028171;28;20080;-74
2022/03/25 02:42:58;;;;;;;1364.43;69.35;;;;;;;;;;5027348;28;20071;-77
2022/03/25 02:45:24;;;;;;;1200.95;64.90;;;;;;;;;;5009786;28;20059;-75
2022/03/25 02:47:50;;;;;;;1143.05;64.50;;;;;;;;;;5027874;28;20045;-75
2022/03/25 02:50:16;;;;;;;680.20;53.63;;;;;;;;;;5009495;28;20518;-75
2022/03/25 02:52:43;;;;;;;1188.05;62.50;;;;;;;;;;5020328;28;20069;-75
2022/03/25 02:55:09;;;;;;;649.85;47.63;;;;;;;;;;5009772;28;20038;-75
2022/03/25 02:57:36;;;;;;;1028.65;55.97;;;;;;;;;;5009991;28;20042;-77
2022/03/25 03:00:08;;;;;;;955.28;55.90;;;;;;;;;;5009535;28;20044;-78
2022/03/25 03:02:35;;;;;;;434.50;40.67;;;;;;;;;;4989371;28;20057;-77
2022/03/25 03:05:01;;;;;;;494.48;41.15;;;;;;;;;;5026001;28;20570;-77
2022/03/25 03:07:27;;;;;;;472.02;38.30;;;;;;;;;;5009264;28;20051;-77
2022/03/25 03:09:53;;;;;;;532.83;41.50;;;;;;;;;;5027090;28;20149;-77
2022/03/25 03:12:19;;;;;;;476.67;42.80;;;;;;;;;;5009653;28;20056;-77
2022/03/25 03:14:47;;;;;;;608.28;43.08;;;;;;;;;;5009099;28;20268;-77
2022/03/25 03:17:13;;;;;;;330.75;35.92;;;;;;;;;;5009818;28;20049;-77
2022/03/25 03:19:40;;;;;;;270.23;36.30;;;;;;;;;;4993401;28;20077;-77
2022/03/25 03:22:06;;;;;;;547.53;41.90;;;;;;;;;;5009458;28;20045;-78
2022/03/25 03:24:32;;;;;;;461.20;39.67;;;;;;;;;;5007103;28;20037;-78
2022/03/25 03:26:58;;;;;;;596.33;42.05;;;;;;;;;;5008698;28;20120;-78
2022/03/25 03:29:25;;;;;;;715.53;44.88;;;;;;;;;;5009432;28;20045;-78
2022/03/25 03:31:51;;;;;;;264.00;35.88;;;;;;;;;;4992973;28;20071;-78
2022/03/25 03:34:17;;;;;;;350.52;37.63;;;;;;;;;;5008844;28;20048;-75
2022/03/25 03:36:43;;;;;;;347.92;38.08;;;;;;;;;;5009381;28;20045;-78
2022/03/25 03:39:11;;;;;;;366.58;38.63;;;;;;;;;;5008875;28;20050;-78
2022/03/25 03:41:38;;;;;;;362.98;38.30;;;;;;;;;;5009007;28;20045;-78
2022/03/25 03:44:05;;;;;;;383.48;38.58;;;;;;;;;;5008294;28;20045;-78
2022/03/25 03:46:31;;;;;;;357.92;37.00;;;;;;;;;;5008635;28;20062;-78
2022/03/25 03:48:57;;;;;;;381.98;37.45;;;;;;;;;;5008790;28;20125;-78
2022/03/25 03:51:23;;;;;;;376.30;39.10;;;;;;;;;;5017364;28;20042;-78
2022/03/25 03:53:50;;;;;;;401.05;39.20;;;;;;;;;;5009292;28;20042;-78
2022/03/25 03:56:16;;;;;;;366.63;38.50;;;;;;;;;;5008773;28;20041;-78
2022/03/25 03:58:42;;;;;;;343.02;38.08;;;;;;;;;;5008784;28;20046;-78
2022/03/25 04:01:08;;;;;;;327.42;37.00;;;;;;;;;;5008437;28;20080;-79
2022/03/25 04:03:34;;;;;;;268.85;34.05;;;;;;;;;;5028969;28;20045;-78
2022/03/25 04:06:00;;;;;;;426.33;41.10;;;;;;;;;;5012465;28;20049;-78
2022/03/25 04:08:26;;;;;;;271.38;35.55;;;;;;;;;;4996032;28;20072;-78
2022/03/25 04:10:52;;;;;;;269.33;34.67;;;;;;;;;;4995739;28;20037;-78
2022/03/25 04:13:18;;;;;;;234.10;34.22;;;;;;;;;;4996494;28;20507;-78
2022/03/25 04:15:44;;;;;;;355.77;37.58;;;;;;;;;;5012525;28;20521;-78
2022/03/25 04:18:10;;;;;;;265.48;34.80;;;;;;;;;;4995788;28;20045;-78
2022/03/25 04:20:38;;;;;;;198.27;32.22;;;;;;;;;;5029936;28;20044;-78
2022/03/25 04:23:04;;;;;;;276.67;34.55;;;;;;;;;;5011392;28;20162;-78
2022/03/25 04:25:30;;;;;;;207.20;31.42;;;;;;;;;;5012343;28;20558;-78
2022/03/25 04:27:57;;;;;;;339.42;36.22;;;;;;;;;;5011673;28;20049;-79
2022/03/25 04:30:25;;;;;;;277.98;35.67;;;;;;;;;;5012128;28;20497;-78
2022/03/25 04:32:52;;;;;;;400.95;36.17;;;;;;;;;;5012239;28;20162;-79
2022/03/25 04:35:18;;;;;;;183.50;30.35;;;;;;;;;;5011950;28;20045;-75
2022/03/25 04:37:44;;;;;;;215.77;34.40;;;;;;;;;;5011751;28;20045;-75
2022/03/25 04:40:12;;;;;;;197.70;33.65;;;;;;;;;;4995324;28;20202;-75
2022/03/25 04:42:38;;;;;;;151.07;32.70;;;;;;;;;;5029685;28;20065;-75
2022/03/25 04:45:04;;;;;;;221.43;34.25;;;;;;;;;;4995524;28;20037;-75
2022/03/25 04:47:30;;;;;;;187.85;33.53;;;;;;;;;;4996114;28;20494;-75
2022/03/25 04:49:56;;;;;;;155.90;31.02;;;;;;;;;;5011701;28;20037;-75
2022/03/25 04:52:22;;;;;;;193.45;34.30;;;;;;;;;;5005669;28;20041;-75
2022/03/25 04:54:49;;;;;;;330.35;36.22;;;;;;;;;;5011917;28;20047;-75
2022/03/25 04:57:15;;;;;;;235.50;33.38;;;;;;;;;;5011512;28;20037;-78
2022/03/25 04:59:41;;;;;;;252.80;34.45;;;;;;;;;;5029382;28;20072;-78
2022/03/25 05:02:09;;;;;;;176.88;32.83;;;;;;;;;;5002915;28;20094;-78
2022/03/25 05:04:35;;;;;;;323.15;33.70;;;;;;;;;;5011309;28;20084;-79
2022/03/25 05:07:02;;;;;;;322.90;33.25;;;;;;;;;;5010006;28;20124;-79
2022/03/25 05:09:28;;;;;;;370.75;34.33;;;;;;;;;;5011250;28;20061;-79
2022/03/25 05:11:54;;;;;;;247.55;32.47;;;;;;;;;;5028973;28;20049;-79
2022/03/25 05:14:20;;;;;;;343.65;35.00;;;;;;;;;;5011525;28;20041;-78
2022/03/25 05:16:52;;;;;;;207.02;31.13;;;;;;;;;;5020758;28;20117;-79
2022/03/25 05:19:21;;;;;;;189.43;31.80;;;;;;;;;;5011477;28;20095;-78
2022/03/25 05:21:47;;;;;;;236.32;32.30;;;;;;;;;;5011023;28;20128;-78
2022/03/25 05:24:13;;;;;;;220.23;32.50;;;;;;;;;;5029234;28;20453;-78
2022/03/25 05:26:39;;;;;;;211.18;33.38;;;;;;;;;;5028988;28;20030;-75
2022/03/25 05:29:05;;;;;;;229.63;34.17;;;;;;;;;;5011281;28;20498;-75
2022/03/25 05:31:32;;;;;;;211.02;32.85;;;;;;;;;;5010970;28;20091;-75
2022/03/25 05:33:58;;;;;;;174.32;29.27;;;;;;;;;;5011318;28;20509;-75
2022/03/25 05:36:24;;;;;;;131.00;30.42;;;;;;;;;;4979702;28;20045;-74
2022/03/25 05:38:51;;;;;;;135.73;29.80;;;;;;;;;;4995154;28;20070;-78
2022/03/25 05:41:18;;;;;;;278.98;31.40;;;;;;;;;;5012616;28;20022;-78
2022/03/25 05:43:44;;;;;;;123.97;27.60;;;;;;;;;;5012361;28;20440;-79
2022/03/25 05:46:10;;;;;;;156.75;27.00;;;;;;;;;;5029129;28;20041;-79
2022/03/25 05:48:36;;;;;;;220.55;29.27;;;;;;;;;;5013321;28;20528;-78
2022/03/25 05:51:02;;;;;;;152.75;27.30;;;;;;;;;;5029220;28;20121;-78
2022/03/25 05:53:28;;;;;;;157.82;28.10;;;;;;;;;;4995332;28;20474;-74
2022/03/25 05:55:54;;;;;;;314.88;31.52;;;;;;;;;;5011567;28;20046;-75
2022/03/25 05:58:20;;;;;;;131.32;26.13;;;;;;;;;;4979080;28;20067;-74
2022/03/25 06:00:46;;;;;;;184.18;28.13;;;;;;;;;;5011668;28;20486;-75
2022/03/25 06:03:12;;;;;;;150.75;28.73;;;;;;;;;;5028937;28;20030;-74
2022/03/25 06:05:38;;;;;;;249.20;29.63;;;;;;;;;;5028969;28;20068;-79
2022/03/25 06:08:05;;;;;;;116.47;26.10;;;;;;;;;;5012022;28;20049;-78
2022/03/25 06:10:31;;;;;;;206.75;28.15;;;;;;;;;;4995306;28;20065;-78
2022/03/25 06:12:57;;;;;;;187.00;28.60;;;;;;;;;;5010744;28;20033;-78
2022/03/25 06:15:23;;;;;;;122.28;26.48;;;;;;;;;;5010615;28;20083;-78
2022/03/25 06:17:50;;;;;;;118.47;27.35;;;;;;;;;;5027945;28;20379;-79
2022/03/25 06:20:28;;;;;;;109.55;26.05;;;;;;;;;;4994050;28;20037;-78
2022/03/25 06:22:54;;;;;;;130.05;26.95;;;;;;;;;;5010407;28;20152;-78
2022/03/25 06:25:20;;;;;;;85.35;23.45;;;;;;;;;;5027802;28;20038;-78
2022/03/25 06:27:46;;;;;;;56.25;24.75;;;;;;;;;;5027992;28;20416;-78
2022/03/25 06:30:13;;;;;;;45.47;23.85;;;;;;;;;;5010096;28;20045;-79
2022/03/25 06:32:40;;;;;;;43.95;19.73;;;;;;;;;;5009885;28;20033;-79
2022/03/25 06:35:07;;;;;;;38.38;20.63;;;;;;;;;;5010138;28;20525;-76
2022/03/25 06:37:33;;;;;;;50.72;18.67;;;;;;;;;;5027953;28;20074;-76
2022/03/25 06:39:59;;;;;;;31.90;19.77;;;;;;;;;;5009692;28;20490;-76
2022/03/25 06:42:25;;;;;;;29.55;19.88;;;;;;;;;;5027753;28;20057;-76
2022/03/25 06:44:51;;;;;;;32.58;20.75;;;;;;;;;;5009824;28;20040;-76
2022/03/25 06:47:18;;;;;;;29.25;20.77;;;;;;;;;;5009385;28;20033;-75
2022/03/25 06:49:44;;;;;;;29.92;20.67;;;;;;;;;;5027431;28;20128;-76
2022/03/25 06:52:10;;;;;;;29.85;21.05;;;;;;;;;;5018122;28;20091;-75
2022/03/25 06:54:36;;;;;;;30.17;21.17;;;;;;;;;;5027472;28;20375;-75
2022/03/25 06:57:03;;;;;;;29.63;20.88;;;;;;;;;;5009761;28;20103;-80
2022/03/25 06:59:29;;;;;;;29.23;21.27;;;;;;;;;;5009892;28;20463;-80
2022/03/25 07:01:55;;;;;;;30.25;20.80;;;;;;;;;;5009562;28;20090;-80
2022/03/25 07:04:21;;;;;;;30.15;21.65;;;;;;;;;;5027124;28;20397;-79
2022/03/25 07:06:49;;;;;;;30.70;21.65;;;;;;;;;;5027318;28;20483;-79
2022/03/25 07:09:15;;;;;;;27.98;20.58;;;;;;;;;;5008763;28;20582;-80
2022/03/25 07:11:42;;;;;;;27.05;20.35;;;;;;;;;;5027528;28;20487;-79
2022/03/25 07:14:08;;;;;;;27.30;20.13;;;;;;;;;;5017404;28;20380;-80
2022/03/25 07:16:34;;;;;;;29.25;22.33;;;;;;;;;;5009655;28;20060;-79
2022/03/25 07:19:00;;;;;;;30.20;22.45;;;;;;;;;;5009262;28;20040;-79
2022/03/25 07:21:26;;;;;;;27.98;20.58;;;;;;;;;;5009775;28;20542;-79
2022/03/25 07:23:53;;;;;;;27.13;21.10;;;;;;;;;;5009820;28;20494;-79
2022/03/25 07:26:19;;;;;;;31.60;23.30;;;;;;;;;;5026872;28;20060;-79
2022/03/25 07:28:45;;;;;;;33.65;24.10;;;;;;;;;;5009532;28;20041;-79
2022/03/25 07:31:11;;;;;;;29.48;22.35;;;;;;;;;;5009672;28;20130;-79
2022/03/25 07:33:37;;;;;;;36.33;23.95;;;;;;;;;;5009508;28;20067;-79
2022/03/25 07:36:03;;;;;;;32.55;23.80;;;;;;;;;;5009088;28;20056;-79
2022/03/25 07:38:29;;;;;;;34.20;24.83;;;;;;;;;;5007694;28;20045;-79
2022/03/25 07:40:56;;;;;;;34.22;24.58;;;;;;;;;;4992636;28;20396;-77
2022/03/25 07:43:22;;;;;;;29.92;23.63;;;;;;;;;;5027049;28;20067;-77
2022/03/25 07:45:48;;;;;;;37.35;25.80;;;;;;;;;;5009242;28;20782;-75
2022/03/25 07:48:15;;;;;;;33.00;25.25;;;;;;;;;;4992174;28;20145;-75
2022/03/25 07:50:41;;;;;;;34.63;25.48;;;;;;;;;;5008950;28;20054;-75
2022/03/25 07:53:07;;;;;;;35.25;24.77;;;;;;;;;;5008363;28;20615;-76
2022/03/25 07:55:33;;;;;;;29.30;22.95;;;;;;;;;;5009028;28;20041;-76
2022/03/25 07:57:59;;;;;;;32.80;24.73;;;;;;;;;;4992497;28;20046;-76
2022/03/25 08:00:25;;;;;;;33.80;24.40;;;;;;;;;;4992529;28;20045;-76
2022/03/25 08:02:53;;;;;;;34.22;21.70;;;;;;;;;;5009033;28;20038;-76
2022/03/25 08:05:19;;;;;;;36.08;23.60;;;;;;;;;;5008310;28;20041;-76
2022/03/25 08:07:49;;;;;;;33.60;24.38;;;;;;;;;;5008779;28;20045;-76
2022/03/25 08:10:16;;;;;;;34.20;23.35;;;;;;;;;;5008586;28;20061;-76
2022/03/25 08:12:43;;;;;;;33.05;22.55;;;;;;;;;;5008276;28;20038;-76
2022/03/25 08:15:10;;;;;;;32.17;22.63;;;;;;;;;;5008065;28;20038;-75
2022/03/25 08:17:46;;;;;;;31.55;21.33;;;;;;;;;;5008555;28;20044;-75
2022/03/25 08:20:12;;;;;;;29.58;20.92;;;;;;;;;;5008011;28;20038;-76
2022/03/25 08:22:38;;;;;;;32.50;22.23;;;;;;;;;;5026319;28;20037;-77
2022/03/25 08:27:50;;;;;;;29.65;20.80;;;;;;;;;;5008269;28;20073;-76
2022/03/25 08:30:16;;;;;;;28.65;19.98;;;;;;;;;;5008471;28;20041;-76
2022/03/25 08:32:42;;;;;;;32.35;21.10;;;;;;;;;;5008288;28;20037;-76
2022/03/25 08:35:08;;;;;;;31.00;20.13;;;;;;;;;;5008182;28;20037;-76
2022/03/25 08:37:35;;;;;;;29.83;20.58;;;;;;;;;;5026222;28;20055;-77
2022/03/25 08:40:03;;;;;;;29.63;18.85;;;;;;;;;;5007551;28;20049;-77
2022/03/25 08:42:29;;;;;;;26.92;18.73;;;;;;;;;;5008292;28;20045;-77
2022/03/25 08:44:56;;;;;;;29.00;18.45;;;;;;;;;;5008317;28;20197;-76
2022/03/25 08:47:22;;;;;;;26.38;17.80;;;;;;;;;;5008455;28;20120;-77
2022/03/25 08:49:48;;;;;;;27.08;18.48;;;;;;;;;;5028390;28;20163;-77
2022/03/25 08:52:14;;;;;;;26.52;18.20;;;;;;;;;;4978954;28;20049;-77
2022/03/25 08:54:40;;;;;;;25.88;18.67;;;;;;;;;;5029126;28;20525;-77
2022/03/25 08:57:07;;;;;;;24.83;18.13;;;;;;;;;;5011395;28;20094;-77
2022/03/25 08:59:33;;;;;;;24.23;17.55;;;;;;;;;;5011047;28;20045;-76
2022/03/25 09:01:59;;;;;;;23.77;17.80;;;;;;;;;;5010880;28;20086;-78
2022/03/25 09:04:25;;;;;;;25.55;18.38;;;;;;;;;;5011528;28;20046;-76
2022/03/25 09:06:51;;;;;;;29.75;20.05;;;;;;;;;;5011515;28;20440;-77
2022/03/25 09:09:17;;;;;;;26.38;19.75;;;;;;;;;;5011162;28;20076;-77
2022/03/25 09:11:43;;;;;;;28.35;19.17;;;;;;;;;;5011636;28;20570;-77
2022/03/25 09:14:09;;;;;;;28.85;19.80;;;;;;;;;;5011172;28;20034;-77
2022/03/25 09:16:36;;;;;;;27.52;19.55;;;;;;;;;;4995206;28;20037;-78
2022/03/25 09:19:02;;;;;;;26.60;18.98;;;;;;;;;;5028552;28;20041;-77
2022/03/25 09:21:28;;;;;;;28.55;18.85;;;;;;;;;;5011242;28;20041;-78
2022/03/25 09:23:54;;;;;;;26.85;19.55;;;;;;;;;;4994574;28;20045;-78
2022/03/25 09:26:20;;;;;;;25.27;18.65;;;;;;;;;;4994321;28;20080;-77
2022/03/25 09:28:46;;;;;;;27.95;19.58;;;;;;;;;;5028726;28;20090;-77
2022/03/25 09:31:12;;;;;;;27.90;19.52;;;;;;;;;;5028699;28;20076;-77
2022/03/25 09:33:39;;;;;;;27.27;19.95;;;;;;;;;;5011330;28;20124;-77
2022/03/25 09:36:05;;;;;;;26.83;18.40;;;;;;;;;;4994016;28;20046;-77
2022/03/25 09:38:31;;;;;;;24.90;17.25;;;;;;;;;;5028452;28;20188;-76
2022/03/25 09:40:58;;;;;;;22.42;16.65;;;;;;;;;;5028598;28;20041;-77
2022/03/25 09:43:25;;;;;;;27.52;17.98;;;;;;;;;;5029162;28;20033;-78
2022/03/25 09:45:51;;;;;;;25.95;17.63;;;;;;;;;;5010963;28;20029;-76
2022/03/25 09:48:19;;;;;;;26.42;18.70;;;;;;;;;;5028393;28;20037;-76
2022/03/25 09:50:45;;;;;;;26.13;17.90;;;;;;;;;;5010365;28;20049;-78
2022/03/25 09:53:11;;;;;;;27.52;18.65;;;;;;;;;;5028207;28;20563;-76
2022/03/25 09:55:40;;;;;;;27.48;18.33;;;;;;;;;;5028322;28;20046;-76
2022/03/25 09:58:07;;;;;;;23.50;17.48;;;;;;;;;;5028094;28;20106;-75
2022/03/25 10:00:33;;;;;;;28.33;17.92;;;;;;;;;;5009811;28;20034;-76
2022/03/25 10:02:59;;;;;;;28.05;16.88;;;;;;;;;;5011233;28;20038;-76
2022/03/25 10:05:26;;;;;;;24.98;18.13;;;;;;;;;;5028080;28;20525;-76
2022/03/25 10:07:56;;;;;;;28.05;18.00;;;;;;;;;;5028033;28;20037;-76
2022/03/25 10:10:23;;;;;;;30.67;18.33;;;;;;;;;;5027781;28;20531;-77
2022/03/25 10:12:50;;;;;;;23.80;16.83;;;;;;;;;;5011004;28;20057;-77
2022/03/25 10:15:18;;;;;;;26.60;17.10;;;;;;;;;;5010574;28;20044;-76
2022/03/25 10:18:10;;;;;;;27.80;16.85;;;;;;;;;;5028261;28;20543;-76
2022/03/25 10:20:38;;;;;;;24.02;16.75;;;;;;;;;;5010675;28;20061;-76
2022/03/25 10:23:06;;;;;;;33.05;18.38;;;;;;;;;;5010448;28;20038;-75
2022/03/25 10:25:33;;;;;;;25.38;17.80;;;;;;;;;;5028484;28;20040;-76
2022/03/25 10:27:59;;;;;;;23.45;16.42;;;;;;;;;;5010216;28;20096;-76
2022/03/25 10:30:38;;;;;;;22.15;16.63;;;;;;;;;;4994260;28;20506;-76
2022/03/25 10:33:23;;;;;;;23.80;17.02;;;;;;;;;;5010487;28;20442;-75
2022/03/25 10:36:07;;;;;;;24.13;17.00;;;;;;;;;;5006328;28;20030;-76
2022/03/25 10:38:47;;;;;;;25.80;16.83;;;;;;;;;;5028465;28;20037;-76
2022/03/25 10:41:14;;;;;;;24.13;16.15;;;;;;;;;;5010300;28;20071;-76
2022/03/25 10:43:47;;;;;;;24.45;15.77;;;;;;;;;;5005585;28;20048;-75
2022/03/25 10:46:32;;;;;;;23.48;16.63;;;;;;;;;;5010211;28;20034;-76
2022/03/25 10:48:58;;;;;;;25.75;15.98;;;;;;;;;;5010252;28;20116;-78
2022/03/25 10:51:25;;;;;;;22.83;14.90;;;;;;;;;;5020499;28;20045;-75
2022/03/25 10:54:01;;;;;;;25.42;15.13;;;;;;;;;;5027343;28;20046;-75
2022/03/25 10:56:28;;;;;;;21.08;14.27;;;;;;;;;;5010165;28;20045;-76
2022/03/25 10:58:55;;;;;;;21.25;14.32;;;;;;;;;;5010066;28;20049;-76
2022/03/25 11:01:22;;;;;;;29.48;15.25;;;;;;;;;;5027595;28;20121;-76
2022/03/25 11:03:52;;;;;;;25.05;16.67;;;;;;;;;;5009755;28;20086;-76
2022/03/25 11:06:19;;;;;;;21.23;14.85;;;;;;;;;;5009060;28;20041;-76
2022/03/25 11:08:45;;;;;;;25.50;14.68;;;;;;;;;;5008962;28;20068;-77
2022/03/25 11:11:12;;;;;;;26.38;15.68;;;;;;;;;;5009363;28;20128;-76
2022/03/25 11:13:38;;;;;;;24.40;15.18;;;;;;;;;;5009847;28;20497;-76
2022/03/25 11:16:08;;;;;;;23.15;15.13;;;;;;;;;;5026987;28;20086;-76
2022/03/25 11:18:34;;;;;;;22.73;15.65;;;;;;;;;;5009509;28;20041;-76
2022/03/25 11:21:00;;;;;;;22.02;14.25;;;;;;;;;;5009557;28;20468;-75
2022/03/25 11:23:34;;;;;;;23.55;14.63;;;;;;;;;;5009696;28;20037;-76
2022/03/25 11:26:04;;;;;;;25.00;15.38;;;;;;;;;;5007607;28;20079;-76
2022/03/25 11:28:31;;;;;;;23.20;14.73;;;;;;;;;;4993658;28;20402;-76
2022/03/25 11:31:04;;;;;;;26.02;16.00;;;;;;;;;;4993231;28;20041;-76
2022/03/25 11:33:30;;;;;;;23.30;14.82;;;;;;;;;;5009749;28;20041;-76
2022/03/25 11:36:18;;;;;;;25.30;16.30;;;;;;;;;;4992990;28;20037;-77
2022/03/25 11:38:44;;;;;;;27.80;18.40;;;;;;;;;;5008955;28;20506;-76
2022/03/25 11:41:27;;;;;;;22.20;15.15;;;;;;;;;;5027125;28;20077;-75
2022/03/25 11:44:19;;;;;;;25.83;16.88;;;;;;;;;;5008406;28;20041;-77
2022/03/25 11:47:01;;;;;;;26.83;17.00;;;;;;;;;;5008697;28;20084;-77
2022/03/25 11:49:28;;;;;;;23.00;16.05;;;;;;;;;;4993398;28;20049;-77
2022/03/25 11:51:54;;;;;;;24.58;15.93;;;;;;;;;;5009303;28;20053;-76
2022/03/25 11:54:40;;;;;;;24.38;16.80;;;;;;;;;;5008965;28;20060;-75
2022/03/25 11:57:07;;;;;;;25.80;16.88;;;;;;;;;;5008746;28;20073;-77
2022/03/25 11:59:46;;;;;;;27.80;16.48;;;;;;;;;;5027068;28;20501;-76
2022/03/25 12:02:24;;;;;;;26.33;17.30;;;;;;;;;;5009218;28;20037;-74
2022/03/25 12:04:51;;;;;;;27.23;17.23;;;;;;;;;;5026338;28;20038;-76
2022/03/25 12:07:17;;;;;;;25.75;16.98;;;;;;;;;;5008268;28;20169;-75
2022/03/25 12:09:47;;;;;;;28.33;17.67;;;;;;;;;;5008536;28;20093;-76
2022/03/25 12:12:13;;;;;;;24.27;16.75;;;;;;;;;;5003848;28;20178;-75
2022/03/25 12:14:58;;;;;;;26.40;17.80;;;;;;;;;;5009102;28;20048;-77
2022/03/25 12:17:25;;;;;;;29.27;17.27;;;;;;;;;;5008843;28;20486;-77
2022/03/25 12:19:54;;;;;;;27.20;16.75;;;;;;;;;;5008801;28;20415;-77
2022/03/25 12:22:20;;;;;;;26.88;17.48;;;;;;;;;;5008780;28;20045;-76
2022/03/25 12:24:53;;;;;;;23.58;16.02;;;;;;;;;;4995085;28;20045;-77
2022/03/25 12:27:20;;;;;;;28.92;17.73;;;;;;;;;;5012251;28;20398;-77
2022/03/25 12:29:48;;;;;;;25.92;16.70;;;;;;;;;;5029772;28;20367;-77
2022/03/25 12:32:16;;;;;;;26.63;16.73;;;;;;;;;;4995498;28;20044;-76
2022/03/25 12:34:49;;;;;;;24.13;16.20;;;;;;;;;;5006801;28;20049;-76
2022/03/25 12:37:34;;;;;;;25.05;16.05;;;;;;;;;;4995119;28;20116;-76
2022/03/25 12:40:14;;;;;;;27.83;16.67;;;;;;;;;;4995342;28;20375;-75
2022/03/25 12:42:41;;;;;;;26.98;15.55;;;;;;;;;;5012218;28;20113;-75
2022/03/25 12:45:07;;;;;;;21.30;14.23;;;;;;;;;;4995506;28;20037;-76
2022/03/25 12:47:35;;;;;;;22.75;14.13;;;;;;;;;;5012422;28;20033;-75
2022/03/25 12:50:02;;;;;;;23.90;13.68;;;;;;;;;;5029528;28;20103;-75
2022/03/25 12:52:28;;;;;;;22.60;12.77;;;;;;;;;;5012288;28;20509;-75
2022/03/25 12:54:55;;;;;;;21.15;12.73;;;;;;;;;;5011889;28;20048;-75
2022/03/25 12:57:31;;;;;;;22.77;12.07;;;;;;;;;;5011639;28;20050;-75
2022/03/25 12:59:57;;;;;;;23.77;12.43;;;;;;;;;;4995564;28;20522;-74
2022/03/25 13:02:31;;;;;;;22.17;13.13;;;;;;;;;;4995887;28;20037;-76
2022/03/25 13:05:07;;;;;;;22.42;12.00;;;;;;;;;;5011989;28;20121;-75
2022/03/25 13:07:33;;;;;;;21.90;12.95;;;;;;;;;;5011845;28;20087;-75
2022/03/25 13:09:59;;;;;;;21.45;12.68;;;;;;;;;;4994547;28;20053;-75
2022/03/25 13:12:36;;;;;;;21.73;13.10;;;;;;;;;;5011514;28;20049;-75
2022/03/25 13:15:04;;;;;;;22.88;13.40;;;;;;;;;;5011894;28;20391;-76
2022/03/25 13:17:37;;;;;;;21.38;12.82;;;;;;;;;;5029421;28;20389;-75
2022/03/25 13:20:08;;;;;;;23.52;12.57;;;;;;;;;;4989951;28;20061;-75
2022/03/25 13:22:35;;;;;;;19.45;12.00;;;;;;;;;;5029508;28;20037;-75
2022/03/25 13:25:01;;;;;;;24.63;11.70;;;;;;;;;;5011440;28;20043;-75
2022/03/25 13:27:27;;;;;;;24.23;13.80;;;;;;;;;;5011953;28;20049;-75
2022/03/25 13:29:53;;;;;;;19.45;11.82;;;;;;;;;;5011734;28;20098;-75
2022/03/25 13:32:29;;;;;;;21.55;11.77;;;;;;;;;;5011316;28;20322;-75
2022/03/25 13:35:06;;;;;;;21.23;11.27;;;;;;;;;;5011455;28;20073;-76
2022/03/25 13:37:32;;;;;;;23.05;11.07;;;;;;;;;;5011165;28;20050;-75
2022/03/25 13:39:59;;;;;;;19.80;11.68;;;;;;;;;;5011261;28;20076;-75
2022/03/25 13:42:35;;;;;;;21.55;12.00;;;;;;;;;;5011394;28;20051;-75
2022/03/25 13:45:05;;;;;;;21.23;11.88;;;;;;;;;;4995414;28;20034;-75
2022/03/25 13:47:32;;;;;;;19.95;10.43;;;;;;;;;;5011436;28;20041;-76
2022/03/25 13:50:19;;;;;;;20.20;10.30;;;;;;;;;;5011286;28;20506;-75
2022/03/25 13:53:09;;;;;;;24.65;12.18;;;;;;;;;;5011067;28;20037;-76
2022/03/25 13:55:40;;;;;;;23.00;11.68;;;;;;;;;;5007295;28;20041;-77
2022/03/25 13:58:11;;;;;;;23.08;11.55;;;;;;;;;;5028122;28;20029;-77
2022/03/25 14:00:39;;;;;;;23.10;12.10;;;;;;;;;;5028626;28;20044;-76
2022/03/25 14:03:06;;;;;;;22.65;11.90;;;;;;;;;;4994413;28;20037;-77
2022/03/25 14:05:33;;;;;;;24.48;11.63;;;;;;;;;;5011209;28;20555;-76
2022/03/25 14:07:59;;;;;;;21.40;10.20;;;;;;;;;;5026023;28;20399;-76
2022/03/25 14:10:25;;;;;;;26.85;11.55;;;;;;;;;;5010633;28;20053;-75
2022/03/25 14:12:55;;;;;;;23.35;13.13;;;;;;;;;;5028696;28;20065;-75
2022/03/25 14:15:24;;;;;;;26.05;12.10;;;;;;;;;;4990139;28;20053;-75
2022/03/25 14:17:52;;;;;;;23.73;12.30;;;;;;;;;;5010939;28;20094;-75